Time;durP1;ratioP1;P1;durP2;ratioP2;P2;SDS_P1;SDS_P2;PMS_P1;PMS_P2;Temp;Humidity;BMP_temperature;BMP_pressure;BME280_temperature;BME280_humidity;BME280_pressure;Samples;Min_cycle;Max_cycle;Signal;HPM_P1;HPM_P2
2021/03/15 00:01:09;;;;;;;0.67;0.67;;;;;;;3.42;87.65;99717.28;5073011;28;20178;-76
2021/03/15 00:03:35;;;;;;;0.00;0.00;;;;;;;3.44;87.54;99722.41;5073336;28;20155;-74
2021/03/15 00:06:01;;;;;;;1.50;1.07;;;;;;;3.47;87.24;99722.69;5072777;28;20181;-76
2021/03/15 00:08:27;;;;;;;1.73;1.63;;;;;;;3.51;87.18;99717.50;5072840;28;20174;-75
2021/03/15 00:10:53;;;;;;;5.40;1.63;;;;;;;3.55;87.15;99726.66;5072908;28;20208;-75
2021/03/15 00:13:19;;;;;;;7.00;1.63;;;;;;;3.58;86.60;99717.97;5072668;28;20524;-76
2021/03/15 00:15:47;;;;;;;1.87;1.27;;;;;;;3.61;86.77;99713.91;5072802;28;20699;-76
2021/03/15 00:18:13;;;;;;;0.97;0.97;;;;;;;3.63;86.45;99723.34;5071869;28;20185;-75
2021/03/15 00:20:38;;;;;;;0.33;0.33;;;;;;;3.62;86.68;99723.63;5072479;28;20166;-75
2021/03/15 00:23:04;;;;;;;0.20;0.20;;;;;;;3.64;86.80;99726.88;5072398;28;20630;-75
2021/03/15 00:25:29;;;;;;;4.70;1.03;;;;;;;3.67;86.99;99719.00;5072452;28;20493;-75
2021/03/15 00:27:55;;;;;;;0.63;0.63;;;;;;;3.70;86.72;99715.72;5071791;28;20194;-75
2021/03/15 00:30:21;;;;;;;0.73;0.33;;;;;;;3.69;86.95;99719.50;5071971;28;20162;-76
2021/03/15 00:32:48;;;;;;;0.30;0.10;;;;;;;3.70;87.25;99725.72;5073832;28;20689;-76
2021/03/15 00:35:15;;;;;;;1.13;1.13;;;;;;;3.71;87.17;99721.94;5072859;28;20173;-76
2021/03/15 00:37:42;;;;;;;0.23;0.20;;;;;;;3.73;87.26;99708.94;5071620;28;20182;-77
2021/03/15 00:40:11;;;;;;;0.17;0.17;;;;;;;3.73;87.34;99708.94;5072787;28;20174;-77
2021/03/15 00:42:36;;;;;;;0.47;0.20;;;;;;;3.75;87.48;99706.75;5072311;28;20182;-76
2021/03/15 00:45:06;;;;;;;0.57;0.57;;;;;;;3.75;87.89;99718.38;5072053;28;20257;-75
2021/03/15 00:47:32;;;;;;;0.10;0.10;;;;;;;3.77;87.29;99712.72;5071387;28;20577;-76
2021/03/15 00:49:57;;;;;;;0.73;0.73;;;;;;;3.76;87.68;99714.59;5071956;28;20196;-75
2021/03/15 00:52:22;;;;;;;1.60;1.50;;;;;;;3.77;88.25;99713.50;5072222;28;20915;-76
2021/03/15 00:54:48;;;;;;;1.13;0.93;;;;;;;3.75;88.76;99715.66;5071762;28;20217;-75
2021/03/15 00:57:13;;;;;;;0.40;0.40;;;;;;;3.73;88.96;99712.44;5070581;28;20194;-76
2021/03/15 00:59:39;;;;;;;0.30;0.30;;;;;;;3.72;88.90;99721.63;5059195;28;20183;-75
2021/03/15 01:02:04;;;;;;;5.03;0.37;;;;;;;3.69;89.24;99719.50;5052059;28;20527;-75
2021/03/15 01:04:30;;;;;;;0.63;0.63;;;;;;;3.67;89.85;99726.28;5054679;28;20647;-76
2021/03/15 01:06:55;;;;;;;0.00;0.00;;;;;;;3.64;89.97;99724.16;5071079;28;20198;-76
2021/03/15 01:09:20;;;;;;;3.77;0.50;;;;;;;3.58;90.94;99716.09;5071280;28;20627;-76
2021/03/15 01:11:46;;;;;;;0.67;0.30;;;;;;;3.52;90.70;99719.94;5071363;28;20178;-76
2021/03/15 01:14:12;;;;;;;0.00;0.00;;;;;;;3.48;91.06;99718.88;5071492;28;20254;-76
2021/03/15 01:16:37;;;;;;;0.00;0.00;;;;;;;3.45;91.79;99707.81;5070899;28;20170;-77
2021/03/15 01:19:03;;;;;;;0.40;0.40;;;;;;;3.40;92.28;99711.38;5071322;28;20167;-76
2021/03/15 01:21:29;;;;;;;1.00;0.93;;;;;;;3.35;92.50;99703.31;5071277;28;20175;-77
2021/03/15 01:23:55;;;;;;;0.00;0.00;;;;;;;3.31;92.74;99704.16;5071021;28;20405;-76
2021/03/15 01:26:20;;;;;;;0.00;0.00;;;;;;;3.28;92.99;99700.13;5070776;28;20540;-75
2021/03/15 01:28:46;;;;;;;0.63;0.63;;;;;;;3.23;93.08;99703.69;5071028;28;20560;-76
2021/03/15 01:31:12;;;;;;;0.60;0.60;;;;;;;3.22;93.74;99690.47;5071378;28;20176;-76
2021/03/15 01:33:37;;;;;;;0.30;0.30;;;;;;;3.20;93.58;99689.94;5071162;28;20193;-77
2021/03/15 01:36:04;;;;;;;0.40;0.40;;;;;;;3.14;93.82;99691.84;5070974;28;20417;-76
2021/03/15 01:38:29;;;;;;;0.30;0.30;;;;;;;3.11;93.98;99694.31;5070593;28;20548;-76
2021/03/15 01:40:54;;;;;;;1.23;1.23;;;;;;;3.06;94.12;99689.78;5071061;28;20188;-76
2021/03/15 01:43:20;;;;;;;0.40;0.40;;;;;;;3.04;94.56;99685.72;5070906;28;20213;-77
2021/03/15 01:45:45;;;;;;;0.53;0.43;;;;;;;2.97;94.63;99686.84;5070978;28;20181;-77
2021/03/15 01:48:12;;;;;;;0.40;0.40;;;;;;;2.92;94.87;99692.28;5070234;28;20247;-78
2021/03/15 01:50:39;;;;;;;0.20;0.20;;;;;;;2.90;95.08;99682.88;5070824;28;20170;-78
2021/03/15 01:53:05;;;;;;;0.20;0.20;;;;;;;2.85;95.32;99672.91;5070685;28;20421;-78
2021/03/15 01:55:30;;;;;;;1.07;0.37;;;;;;;2.81;95.49;99676.44;5070755;28;20417;-77
2021/03/15 01:57:55;;;;;;;0.30;0.30;;;;;;;2.76;95.52;99668.38;5070634;28;20183;-76
2021/03/15 02:00:21;;;;;;;0.17;0.17;;;;;;;2.71;95.32;99663.00;5070523;28;20170;-76
2021/03/15 02:02:58;;;;;;;0.10;0.10;;;;;;;2.61;95.13;99662.00;5070980;28;20356;-76
2021/03/15 02:05:24;;;;;;;0.43;0.43;;;;;;;2.55;95.35;99662.28;5052703;28;20189;-76
2021/03/15 02:07:50;;;;;;;0.00;0.00;;;;;;;2.49;95.41;99664.22;5069867;28;20794;-77
2021/03/15 02:10:15;;;;;;;0.13;0.13;;;;;;;2.45;95.86;99656.94;5070750;28;20417;-77
2021/03/15 02:13:18;;;;;;;0.23;0.17;;;;;;;2.38;95.94;99660.75;5070521;28;20173;-75
2021/03/15 02:16:02;;;;;;;0.20;0.20;;;;;;;2.30;95.80;99655.91;5052598;28;20178;-76
2021/03/15 02:18:45;;;;;;;0.57;0.43;;;;;;;2.23;96.20;99658.13;5051996;28;20431;-75
2021/03/15 02:21:49;;;;;;;0.00;0.00;;;;;;;2.18;96.30;99652.75;5070785;28;20421;-76
2021/03/15 02:24:34;;;;;;;3.40;0.43;;;;;;;2.13;96.39;99652.75;5070511;28;20435;-76
2021/03/15 02:27:42;;;;;;;0.33;0.33;;;;;;;2.15;96.53;99641.69;5069941;28;20513;-77
2021/03/15 02:30:35;;;;;;;0.23;0.23;;;;;;;2.09;96.95;99628.25;5025677;28;20449;-76
2021/03/15 02:33:08;;;;;;;0.43;0.43;;;;;;;2.11;97.12;99636.06;5050697;28;20398;-77
2021/03/15 02:35:36;;;;;;;0.30;0.30;;;;;;;2.09;97.00;99635.53;5050407;28;20412;-75
2021/03/15 02:38:10;;;;;;;0.43;0.43;;;;;;;2.08;97.11;99633.94;5049790;28;20402;-75
2021/03/15 02:40:43;;;;;;;1.07;1.07;;;;;;;2.09;97.19;99640.94;5050210;28;20455;-75
2021/03/15 02:43:15;;;;;;;2.70;1.03;;;;;;;2.11;97.61;99637.94;5049922;28;20413;-76
2021/03/15 02:45:41;;;;;;;0.33;0.33;;;;;;;2.08;97.74;99634.72;5049982;28;20909;-76
2021/03/15 02:48:10;;;;;;;0.93;0.93;;;;;;;2.05;97.73;99626.41;5049468;28;20519;-76
2021/03/15 02:50:38;;;;;;;0.63;0.63;;;;;;;1.99;97.85;99624.78;5049931;28;20428;-77
2021/03/15 02:53:06;;;;;;;0.20;0.17;;;;;;;2.01;97.91;99625.31;5050146;28;20405;-77
2021/03/15 02:55:33;;;;;;;0.43;0.43;;;;;;;1.97;97.90;99630.44;5050144;28;20749;-77
2021/03/15 02:58:02;;;;;;;0.80;0.80;;;;;;;1.91;97.90;99611.91;5049885;28;20414;-77
2021/03/15 03:00:27;;;;;;;0.00;0.00;;;;;;;1.86;97.45;99617.28;5050185;28;20471;-77
2021/03/15 03:02:53;;;;;;;0.00;0.00;;;;;;;1.81;97.63;99617.31;5049296;28;20898;-76
2021/03/15 03:05:19;;;;;;;0.57;0.57;;;;;;;1.78;97.72;99616.78;5050025;28;20569;-76
2021/03/15 03:07:51;;;;;;;0.57;0.57;;;;;;;1.73;97.79;99610.59;5049440;28;20199;-76
2021/03/15 03:10:19;;;;;;;0.50;0.50;;;;;;;1.71;97.75;99608.19;5050148;28;20186;-77
2021/03/15 03:12:47;;;;;;;0.23;0.23;;;;;;;1.64;97.91;99602.28;5049971;28;20511;-76
2021/03/15 03:15:15;;;;;;;0.27;0.27;;;;;;;1.60;97.85;99606.63;5050125;28;20421;-78
2021/03/15 03:17:43;;;;;;;0.87;0.87;;;;;;;1.55;97.91;99593.16;5049391;28;20413;-77
2021/03/15 03:20:13;;;;;;;0.97;0.67;;;;;;;1.48;97.76;99598.81;5050302;28;20418;-77
2021/03/15 03:22:40;;;;;;;0.20;0.20;;;;;;;1.47;98.36;99599.09;5053578;28;20512;-77
2021/03/15 03:25:09;;;;;;;0.70;0.70;;;;;;;1.46;98.14;99597.50;5053800;28;20467;-77
2021/03/15 03:27:36;;;;;;;1.13;1.13;;;;;;;1.45;98.09;99595.88;5053100;28;21061;-76
2021/03/15 03:30:04;;;;;;;1.47;1.30;;;;;;;1.45;98.51;99596.69;5053509;28;20425;-77
2021/03/15 03:32:29;;;;;;;1.23;0.97;;;;;;;1.48;98.42;99598.03;5053530;28;20462;-77
2021/03/15 03:34:55;;;;;;;0.10;0.10;;;;;;;1.48;98.51;99581.88;5053510;28;20904;-78
2021/03/15 03:37:21;;;;;;;0.50;0.50;;;;;;;1.44;98.55;99586.97;5052796;28;20575;-78
2021/03/15 03:39:47;;;;;;;0.53;0.53;;;;;;;1.46;98.80;99589.41;5053338;28;20413;-77
2021/03/15 03:42:12;;;;;;;0.70;0.70;;;;;;;1.43;98.73;99595.31;5053204;28;20179;-77
2021/03/15 03:44:38;;;;;;;0.77;0.27;;;;;;;1.42;98.48;99596.41;5053361;28;20258;-76
2021/03/15 03:47:03;;;;;;;1.50;1.40;;;;;;;1.39;98.65;99589.69;5052680;28;20286;-75
2021/03/15 03:49:29;;;;;;;1.17;1.17;;;;;;;1.42;98.66;99582.94;5053330;28;20214;-77
2021/03/15 03:52:00;;;;;;;0.80;0.80;;;;;;;1.42;98.43;99593.72;5053301;28;20795;-77
2021/03/15 03:54:42;;;;;;;1.37;0.97;;;;;;;1.42;98.89;99591.03;5052982;28;20591;-77
2021/03/15 03:57:13;;;;;;;0.20;0.20;;;;;;;1.39;98.79;99594.25;5052406;28;20421;-77
2021/03/15 03:59:45;;;;;;;0.43;0.43;;;;;;;1.36;98.93;99594.81;5053488;28;20418;-76
2021/03/15 04:02:12;;;;;;;0.43;0.43;;;;;;;1.38;99.41;99592.66;5052758;28;20429;-77
2021/03/15 04:04:43;;;;;;;0.67;0.30;;;;;;;1.34;99.04;99592.38;5053151;28;20414;-77
2021/03/15 04:07:11;;;;;;;0.10;0.10;;;;;;;1.31;99.20;99598.31;5052229;28;20508;-78
2021/03/15 04:09:37;;;;;;;1.07;0.70;;;;;;;1.25;99.52;99595.88;5052684;28;20897;-77
2021/03/15 04:12:07;;;;;;;0.97;0.90;;;;;;;1.25;99.09;99601.28;5052744;28;20410;-77
2021/03/15 04:14:38;;;;;;;2.03;1.50;;;;;;;1.24;99.25;99599.66;5053068;28;20422;-77
2021/03/15 04:17:05;;;;;;;1.00;0.93;;;;;;;1.19;98.94;99595.09;5052132;28;20418;-76
2021/03/15 04:19:42;;;;;;;0.70;0.70;;;;;;;1.16;99.05;99601.84;5052374;28;20453;-76
2021/03/15 04:22:10;;;;;;;0.60;0.60;;;;;;;1.16;99.11;99596.44;5052558;28;20417;-74
2021/03/15 04:24:39;;;;;;;0.97;0.97;;;;;;;1.17;99.46;99592.69;5052551;28;20425;-74
2021/03/15 04:27:06;;;;;;;0.33;0.33;;;;;;;1.19;99.21;99587.03;5051930;28;20469;-79
2021/03/15 04:29:32;;;;;;;0.27;0.27;;;;;;;1.17;99.63;99587.31;5052212;28;20805;-78
2021/03/15 04:31:59;;;;;;;1.60;1.60;;;;;;;1.19;99.91;99592.41;5051340;28;20425;-77
2021/03/15 04:34:26;;;;;;;1.63;1.53;;;;;;;1.19;99.73;99592.41;5052259;28;20898;-77
2021/03/15 04:36:51;;;;;;;1.23;1.13;;;;;;;1.22;99.65;99593.75;5051738;28;20472;-75
2021/03/15 04:39:18;;;;;;;1.23;1.23;;;;;;;1.25;99.64;99591.31;5051939;28;20802;-77
2021/03/15 04:41:44;;;;;;;0.80;0.80;;;;;;;1.30;99.52;99595.88;5052132;28;20179;-77
2021/03/15 04:44:11;;;;;;;1.10;1.10;;;;;;;1.31;99.60;99597.50;5052123;28;20517;-77
2021/03/15 04:46:37;;;;;;;1.23;1.13;;;;;;;1.35;99.68;99595.88;5051443;28;20975;-77
2021/03/15 04:49:07;;;;;;;2.80;2.60;;;;;;;1.42;99.89;99597.19;5051938;28;20422;-75
2021/03/15 04:51:34;;;;;;;1.00;1.00;;;;;;;1.48;99.83;99590.75;5050588;28;20183;-76
2021/03/15 04:54:01;;;;;;;1.17;1.00;;;;;;;1.48;99.82;99598.81;5052155;28;20437;-75
2021/03/15 04:56:28;;;;;;;1.13;1.03;;;;;;;1.53;99.93;99602.56;5051033;28;20825;-77
2021/03/15 04:58:57;;;;;;;1.03;0.83;;;;;;;1.55;99.36;99595.84;5051652;28;20560;-77
2021/03/15 05:01:27;;;;;;;1.20;0.90;;;;;;;1.56;99.47;99592.06;5051624;28;20414;-74
2021/03/15 05:03:53;;;;;;;3.17;2.67;;;;;;;1.58;99.61;99589.91;5050303;28;20511;-76
2021/03/15 05:06:20;;;;;;;0.90;0.90;;;;;;;1.60;99.59;99587.78;5050968;28;20484;-77
2021/03/15 05:08:48;;;;;;;0.83;0.83;;;;;;;1.62;99.40;99585.59;5051512;28;20229;-75
2021/03/15 05:11:13;;;;;;;2.07;1.03;;;;;;;1.66;99.36;99591.25;5051440;28;20568;-75
2021/03/15 05:13:40;;;;;;;2.20;0.97;;;;;;;1.67;99.32;99593.66;5051596;28;20945;-76
2021/03/15 05:16:08;;;;;;;1.00;0.93;;;;;;;1.69;99.28;99588.81;5051091;28;20179;-77
2021/03/15 05:18:34;;;;;;;0.60;0.60;;;;;;;1.71;99.32;99592.03;5051405;28;20446;-76
2021/03/15 05:21:01;;;;;;;0.60;0.60;;;;;;;1.71;99.48;99597.41;5051519;28;20420;-73
2021/03/15 05:23:27;;;;;;;0.30;0.30;;;;;;;1.71;99.50;99583.94;5051369;28;20428;-76
2021/03/15 05:25:54;;;;;;;0.80;0.77;;;;;;;1.73;99.20;99589.06;5051402;28;20417;-76
2021/03/15 05:28:21;;;;;;;0.10;0.10;;;;;;;1.72;99.08;99590.94;5050627;28;20484;-76
2021/03/15 05:30:50;;;;;;;1.47;1.40;;;;;;;1.74;99.53;99591.50;5051376;28;20409;-75
2021/03/15 05:33:19;;;;;;;0.40;0.40;;;;;;;1.76;99.38;99591.22;5051632;28;20418;-77
2021/03/15 05:35:45;;;;;;;1.60;1.17;;;;;;;1.76;99.46;99594.72;5051778;28;20836;-76
2021/03/15 05:38:11;;;;;;;1.03;1.03;;;;;;;1.77;99.52;99596.31;5050042;28;20464;-75
2021/03/15 05:40:45;;;;;;;1.47;1.30;;;;;;;1.79;99.50;99596.06;5050952;28;20512;-75
2021/03/15 05:43:26;;;;;;;2.30;2.10;;;;;;;1.82;99.70;99597.38;5050773;28;20265;-76
2021/03/15 05:46:17;;;;;;;1.47;0.90;;;;;;;1.85;99.49;99596.81;5049708;28;20438;-79
2021/03/15 05:49:33;;;;;;;0.57;0.57;;;;;;;1.86;99.32;99596.56;5049643;28;20472;-75
2021/03/15 05:52:06;;;;;;;0.37;0.37;;;;;;;1.89;99.40;99600.59;5024906;28;20438;-76
2021/03/15 05:54:53;;;;;;;0.30;0.30;;;;;;;1.89;99.53;99600.59;5051013;28;20501;-74
2021/03/15 05:57:55;;;;;;;1.43;1.33;;;;;;;1.91;99.15;99598.44;5050373;28;20421;-77
2021/03/15 06:00:45;;;;;;;0.47;0.47;;;;;;;1.92;99.24;99598.16;5050526;28;20421;-76
2021/03/15 06:03:36;;;;;;;0.90;0.83;;;;;;;1.96;99.36;99601.09;5050544;28;20475;-77
2021/03/15 06:06:05;;;;;;;0.10;0.10;;;;;;;1.97;99.30;99586.56;5050509;28;20573;-74
2021/03/15 06:08:38;;;;;;;1.40;1.30;;;;;;;1.96;99.43;99593.03;5050146;28;20473;-76
2021/03/15 06:11:18;;;;;;;0.60;0.40;;;;;;;1.96;99.34;99590.34;5050698;28;20409;-76
2021/03/15 06:13:44;;;;;;;0.63;0.60;;;;;;;1.98;99.07;99590.84;5050348;28;20410;-76
2021/03/15 06:16:11;;;;;;;0.73;0.73;;;;;;;1.97;99.31;99592.75;5049819;28;20426;-75
2021/03/15 06:18:38;;;;;;;0.83;0.83;;;;;;;1.99;99.35;99590.56;5050479;28;20949;-75
2021/03/15 06:21:04;;;;;;;0.10;0.10;;;;;;;2.00;99.56;99586.81;5050710;28;20422;-75
2021/03/15 06:23:30;;;;;;;0.63;0.63;;;;;;;2.03;99.66;99591.66;5050112;28;20452;-77
2021/03/15 06:25:56;;;;;;;0.23;0.23;;;;;;;2.04;99.85;99587.06;5050234;28;20168;-75
2021/03/15 06:28:23;;;;;;;2.53;1.50;;;;;;;2.09;99.83;99584.34;5049673;28;20527;-77
2021/03/15 06:30:53;;;;;;;0.60;0.60;;;;;;;2.10;99.85;99588.66;5050845;28;20167;-75
2021/03/15 06:33:19;;;;;;;1.07;1.00;;;;;;;2.12;100.00;99585.69;5050842;28;20770;-75
2021/03/15 06:35:54;;;;;;;1.07;0.60;;;;;;;2.16;100.00;99581.34;5049985;28;20852;-76
2021/03/15 06:38:19;;;;;;;0.83;0.83;;;;;;;2.18;100.00;99580.00;5049349;28;20425;-76
2021/03/15 06:40:46;;;;;;;3.17;1.27;;;;;;;2.21;100.00;99584.03;5049731;28;20422;-77
2021/03/15 06:43:14;;;;;;;0.67;0.67;;;;;;;2.25;100.00;99593.16;5050111;28;20203;-76
2021/03/15 06:45:42;;;;;;;0.30;0.30;;;;;;;2.29;100.00;99597.72;5050121;28;20440;-76
2021/03/15 06:48:08;;;;;;;2.20;2.10;;;;;;;2.33;100.00;99611.47;5049891;28;20465;-77
2021/03/15 06:50:33;;;;;;;1.53;1.53;;;;;;;2.36;100.00;99597.44;5050012;28;20796;-77
2021/03/15 06:53:01;;;;;;;1.17;0.27;;;;;;;2.38;100.00;99609.53;5048950;28;20460;-74
2021/03/15 06:55:43;;;;;;;0.77;0.77;;;;;;;2.40;100.00;99611.94;5050946;28;20236;-74
2021/03/15 06:58:18;;;;;;;0.63;0.63;;;;;;;2.46;100.00;99610.03;5053203;28;20418;-75
2021/03/15 07:00:44;;;;;;;1.10;0.87;;;;;;;2.50;100.00;99621.88;5053594;28;20413;-74
2021/03/15 07:03:09;;;;;;;0.13;0.13;;;;;;;2.55;99.79;99619.94;5052339;28;20426;-75
2021/03/15 07:05:35;;;;;;;1.03;1.00;;;;;;;2.61;99.92;99629.63;5068864;28;20939;-73
2021/03/15 07:08:02;;;;;;;1.10;1.07;;;;;;;2.66;99.12;99635.00;5054804;28;20297;-75
2021/03/15 07:10:30;;;;;;;0.83;0.80;;;;;;;2.68;99.05;99630.13;5062913;28;20215;-74
2021/03/15 07:13:10;;;;;;;0.87;0.87;;;;;;;2.68;98.79;99638.22;5053563;28;20512;-75
2021/03/15 07:15:35;;;;;;;1.10;0.63;;;;;;;2.68;98.80;99629.31;5055716;28;20903;-76
2021/03/15 07:18:17;;;;;;;0.97;0.53;;;;;;;2.72;99.04;99643.03;5070230;28;20512;-76
2021/03/15 07:20:45;;;;;;;0.60;0.60;;;;;;;2.72;98.88;99643.03;5053281;28;20328;-78
2021/03/15 07:23:11;;;;;;;1.47;1.47;;;;;;;2.73;98.99;99644.66;5053313;28;20451;-79
2021/03/15 07:25:37;;;;;;;0.63;0.63;;;;;;;2.76;99.29;99649.50;5053585;28;20543;-75
2021/03/15 07:28:02;;;;;;;2.10;1.07;;;;;;;2.79;99.16;99635.47;5051018;28;20268;-77
2021/03/15 07:30:35;;;;;;;0.63;0.63;;;;;;;2.81;99.24;99631.38;5050046;28;20513;-76
2021/03/15 07:33:13;;;;;;;1.13;1.13;;;;;;;2.84;98.60;99644.31;5053484;28;20167;-77
2021/03/15 07:35:40;;;;;;;1.23;0.93;;;;;;;2.88;98.69;99639.97;5053187;28;20410;-77
2021/03/15 07:38:06;;;;;;;0.77;0.77;;;;;;;2.93;98.40;99637.25;5052467;28;20422;-77
2021/03/15 07:40:44;;;;;;;0.30;0.30;;;;;;;3.01;98.29;99643.91;5052931;28;20428;-74
2021/03/15 07:43:15;;;;;;;0.30;0.30;;;;;;;3.04;97.75;99650.63;5052681;28;20182;-77
2021/03/15 07:45:46;;;;;;;0.23;0.23;;;;;;;3.07;97.73;99650.09;5052787;28;20425;-76
2021/03/15 07:48:16;;;;;;;0.83;0.83;;;;;;;3.10;97.27;99655.75;5051972;28;20499;-75
2021/03/15 07:50:54;;;;;;;1.23;0.77;;;;;;;3.15;97.10;99654.88;5052854;28;20417;-76
2021/03/15 07:53:43;;;;;;;1.07;1.07;;;;;;;3.19;97.00;99650.56;5053212;28;20463;-76
2021/03/15 07:56:11;;;;;;;5.27;1.67;;;;;;;3.26;96.74;99661.81;5052590;28;20449;-77
2021/03/15 07:58:40;;;;;;;0.00;0.00;;;;;;;3.32;96.53;99659.88;5053008;28;20830;-77
2021/03/15 08:01:07;;;;;;;0.70;0.70;;;;;;;3.36;96.51;99650.13;5052792;28;20437;-78
2021/03/15 08:03:35;;;;;;;1.23;1.13;;;;;;;3.47;96.40;99648.94;5052322;28;20421;-73
2021/03/15 08:06:00;;;;;;;0.83;0.83;;;;;;;3.59;96.18;99654.78;5052015;28;20425;-75
2021/03/15 08:08:27;;;;;;;0.30;0.30;;;;;;;3.62;95.84;99648.81;5068566;28;20468;-75
2021/03/15 08:10:54;;;;;;;1.53;1.43;;;;;;;3.67;95.67;99640.66;5072504;28;20246;-75
2021/03/15 08:13:24;;;;;;;0.20;0.20;;;;;;;3.69;94.11;99646.59;5072159;28;20224;-78
2021/03/15 08:15:53;;;;;;;0.53;0.53;;;;;;;3.76;94.06;99640.81;5054197;28;20872;-77
2021/03/15 08:18:29;;;;;;;0.57;0.57;;;;;;;3.80;94.35;99650.78;5071558;28;20277;-76
2021/03/15 08:21:25;;;;;;;0.50;0.50;;;;;;;3.80;93.18;99647.28;5072061;28;20534;-76
2021/03/15 08:23:52;;;;;;;0.60;0.60;;;;;;;3.85;92.43;99652.63;5067464;28;20428;-75
2021/03/15 08:26:18;;;;;;;3.10;0.20;;;;;;;3.92;91.52;99653.13;5071252;28;20196;-76
2021/03/15 08:28:44;;;;;;;1.00;0.97;;;;;;;4.01;91.16;99642.47;5053847;28;20187;-75
2021/03/15 08:31:14;;;;;;;0.20;0.20;;;;;;;4.04;90.13;99644.59;5071701;28;20178;-75
2021/03/15 08:33:41;;;;;;;0.57;0.23;;;;;;;4.09;89.90;99647.25;5071880;28;20243;-77
2021/03/15 08:36:07;;;;;;;0.10;0.10;;;;;;;4.16;90.01;99642.28;5071080;28;20167;-77
2021/03/15 08:38:34;;;;;;;0.00;0.00;;;;;;;4.32;90.22;99651.00;5071379;28;20465;-76
2021/03/15 08:41:20;;;;;;;0.53;0.53;;;;;;;4.33;89.26;99648.00;5071468;28;20179;-74
2021/03/15 08:43:48;;;;;;;0.20;0.13;;;;;;;4.43;90.17;99656.00;5053528;28;20641;-77
2021/03/15 08:46:19;;;;;;;0.23;0.23;;;;;;;4.42;88.15;99640.06;5064065;28;20653;-74
2021/03/15 08:48:45;;;;;;;0.13;0.13;;;;;;;4.44;87.79;99641.38;5063830;28;20179;-80
2021/03/15 08:51:15;;;;;;;0.00;0.00;;;;;;;4.54;88.45;99645.06;5064673;28;20883;-74
2021/03/15 08:53:40;;;;;;;33.87;2.13;;;;;;;4.59;88.33;99642.28;5051369;28;20187;-70
2021/03/15 08:56:21;;;;;;;0.03;0.03;;;;;;;4.67;88.30;99636.22;5033001;28;20219;-72
2021/03/15 08:58:54;;;;;;;0.93;0.40;;;;;;;4.80;88.68;99632.78;5051557;28;20175;-71
2021/03/15 09:01:48;;;;;;;0.00;0.00;;;;;;;4.93;87.86;99650.22;5051387;28;20187;-70
2021/03/15 09:04:45;;;;;;;0.30;0.23;;;;;;;4.87;85.95;99640.53;5052325;28;20267;-71
2021/03/15 09:07:30;;;;;;;0.00;0.00;;;;;;;4.82;86.92;99633.31;5059317;28;20761;-71
2021/03/15 09:09:56;;;;;;;0.77;0.50;;;;;;;4.82;86.99;99630.59;5070703;28;20516;-72
2021/03/15 09:12:21;;;;;;;0.70;0.70;;;;;;;4.88;87.54;99642.13;5065538;28;20201;-72
2021/03/15 09:14:55;;;;;;;0.20;0.10;;;;;;;4.90;87.31;99645.34;5051315;28;20171;-72
2021/03/15 09:17:20;;;;;;;7.00;0.87;;;;;;;4.89;86.98;99632.91;5051405;28;20182;-71
2021/03/15 09:19:49;;;;;;;0.17;0.17;;;;;;;4.86;86.84;99641.63;5049658;28;20179;-72
2021/03/15 09:22:27;;;;;;;0.97;0.60;;;;;;;4.82;85.89;99643.31;5051563;28;20171;-72
2021/03/15 09:25:03;;;;;;;1.90;1.80;;;;;;;4.80;85.29;99640.91;5051763;28;20265;-71
2021/03/15 09:27:33;;;;;;;0.17;0.10;;;;;;;4.85;86.43;99638.13;5050792;28;20522;-72
2021/03/15 09:30:01;;;;;;;0.43;0.43;;;;;;;4.88;86.19;99640.25;5051182;28;20190;-72
2021/03/15 09:32:27;;;;;;;0.33;0.33;;;;;;;4.97;86.45;99646.59;5033316;28;20167;-73
2021/03/15 09:34:54;;;;;;;0.83;0.83;;;;;;;5.00;84.12;99610.03;5051220;28;20512;-70
2021/03/15 09:37:19;;;;;;;0.10;0.10;;;;;;;5.06;84.77;99627.78;5051240;28;20178;-71
2021/03/15 09:39:46;;;;;;;0.57;0.57;;;;;;;5.15;85.71;99634.16;5050489;28;20179;-70
2021/03/15 09:42:11;;;;;;;0.30;0.30;;;;;;;5.19;85.04;99639.75;5057329;28;20190;-71
2021/03/15 09:44:41;;;;;;;0.93;0.93;;;;;;;5.14;84.44;99639.84;5070038;28;20224;-72
2021/03/15 09:47:07;;;;;;;6.43;1.37;;;;;;;5.06;84.93;99627.78;5069097;28;20199;-70
2021/03/15 09:49:43;;;;;;;2.13;0.83;;;;;;;5.03;85.21;99621.06;5049649;28;20190;-70
2021/03/15 09:52:10;;;;;;;0.10;0.10;;;;;;;4.99;85.10;99632.78;5051025;28;20183;-71
2021/03/15 09:54:44;;;;;;;0.97;0.97;;;;;;;5.02;85.48;99640.31;5050971;28;20176;-70
2021/03/15 09:57:10;;;;;;;5.33;1.20;;;;;;;5.08;85.24;99623.69;5050681;28;20182;-69
2021/03/15 09:59:36;;;;;;;0.03;0.03;;;;;;;5.20;85.08;99636.75;5050936;28;20186;-72
2021/03/15 10:02:02;;;;;;;0.10;0.10;;;;;;;5.27;84.04;99633.69;5050798;28;20179;-71
2021/03/15 10:04:38;;;;;;;4.03;1.57;;;;;;;5.28;85.24;99640.72;5032971;28;20179;-72
2021/03/15 10:07:08;;;;;;;0.50;0.50;;;;;;;5.30;86.12;99633.91;5050259;28;20209;-72
2021/03/15 10:09:38;;;;;;;0.53;0.43;;;;;;;5.32;86.43;99634.41;5032431;28;20646;-72
2021/03/15 10:12:06;;;;;;;1.23;1.13;;;;;;;5.27;85.38;99628.28;5050945;28;20152;-73
2021/03/15 10:14:31;;;;;;;0.97;0.97;;;;;;;5.20;85.87;99634.06;5033205;28;20631;-73
2021/03/15 10:17:03;;;;;;;10.50;1.90;;;;;;;5.22;86.46;99639.19;5032653;28;20222;-72
2021/03/15 10:19:30;;;;;;;0.60;0.50;;;;;;;5.23;87.42;99641.59;5050882;28;20267;-72
2021/03/15 10:22:11;;;;;;;0.10;0.10;;;;;;;5.24;86.95;99640.50;5050649;28;20171;-72
2021/03/15 10:24:39;;;;;;;0.10;0.10;;;;;;;5.22;87.74;99645.41;5050557;28;20178;-72
2021/03/15 10:27:14;;;;;;;0.33;0.33;;;;;;;5.19;87.05;99645.97;5032009;28;20698;-73
2021/03/15 10:29:40;;;;;;;0.63;0.63;;;;;;;5.20;87.95;99644.88;5050121;28;20396;-72
2021/03/15 10:32:06;;;;;;;0.53;0.53;;;;;;;5.27;88.14;99645.31;5054223;28;20709;-72
2021/03/15 10:34:32;;;;;;;0.20;0.20;;;;;;;5.26;87.13;99643.72;5054761;28;20545;-73
2021/03/15 10:36:58;;;;;;;0.73;0.30;;;;;;;5.25;87.95;99644.00;5054429;28;20167;-73
2021/03/15 10:39:25;;;;;;;0.00;0.00;;;;;;;5.26;87.54;99634.78;5054509;28;20579;-73
2021/03/15 10:41:52;;;;;;;0.37;0.37;;;;;;;5.25;87.50;99635.91;5054303;28;20245;-73
2021/03/15 10:44:21;;;;;;;0.27;0.27;;;;;;;5.26;86.94;99627.47;5054264;28;20176;-73
2021/03/15 10:46:48;;;;;;;0.23;0.13;;;;;;;5.30;86.82;99623.06;5053734;28;20252;-73
2021/03/15 10:49:22;;;;;;;0.00;0.00;;;;;;;5.33;86.36;99630.59;5054472;28;20178;-73
2021/03/15 10:51:51;;;;;;;0.83;0.30;;;;;;;5.40;86.37;99624.81;5064315;28;20313;-72
2021/03/15 10:54:30;;;;;;;0.17;0.17;;;;;;;5.37;87.11;99619.97;5073403;28;20188;-72
2021/03/15 10:57:16;;;;;;;0.30;0.30;;;;;;;5.36;88.50;99631.91;5071747;28;20224;-73
2021/03/15 10:59:42;;;;;;;2.77;1.50;;;;;;;5.30;88.23;99614.94;5054694;28;20167;-73
2021/03/15 11:02:09;;;;;;;0.10;0.10;;;;;;;5.33;88.63;99630.59;5054453;28;20569;-72
2021/03/15 11:04:40;;;;;;;0.30;0.30;;;;;;;5.47;88.99;99625.22;5054488;28;20185;-73
2021/03/15 11:07:21;;;;;;;0.17;0.10;;;;;;;5.58;87.81;99617.72;5054099;28;20222;-73
2021/03/15 11:10:13;;;;;;;0.43;0.43;;;;;;;5.80;87.59;99620.56;5053582;28;20278;-72
2021/03/15 11:12:52;;;;;;;0.43;0.43;;;;;;;5.99;84.70;99627.84;5054415;28;20198;-73
2021/03/15 11:15:38;;;;;;;8.20;0.30;;;;;;;6.20;83.70;99618.16;5048722;28;20540;-72
2021/03/15 11:18:24;;;;;;;1.50;0.53;;;;;;;6.32;83.42;99615.75;5069496;28;20225;-73
2021/03/15 11:20:56;;;;;;;0.10;0.10;;;;;;;6.34;82.15;99616.25;5073189;28;20194;-73
2021/03/15 11:23:37;;;;;;;0.57;0.10;;;;;;;6.35;81.43;99631.41;5074284;28;20283;-72
2021/03/15 11:26:09;;;;;;;0.77;0.40;;;;;;;6.21;79.62;99615.16;5053669;28;20209;-74
2021/03/15 11:28:40;;;;;;;10.50;0.93;;;;;;;6.16;81.41;99619.88;5035572;28;20218;-69
2021/03/15 11:31:11;;;;;;;1.10;1.00;;;;;;;6.13;83.71;99617.78;5053466;28;20246;-73
2021/03/15 11:33:40;;;;;;;0.47;0.43;;;;;;;6.07;84.79;99625.19;5057318;28;20262;-69
2021/03/15 11:36:19;;;;;;;0.33;0.33;;;;;;;6.00;87.16;99641.09;5053341;28;20177;-71
2021/03/15 11:39:11;;;;;;;1.03;0.30;;;;;;;5.92;85.67;99633.63;5053678;28;20191;-71
2021/03/15 11:41:41;;;;;;;0.43;0.30;;;;;;;5.86;84.50;99635.63;5050236;28;20186;-72
2021/03/15 11:44:07;;;;;;;3.50;0.20;;;;;;;5.84;83.91;99624.28;5070604;28;20860;-72
2021/03/15 11:46:32;;;;;;;0.60;0.60;;;;;;;5.92;84.23;99631.72;5072762;28;20232;-71
2021/03/15 11:48:58;;;;;;;0.47;0.10;;;;;;;6.02;83.53;99613.66;5073094;28;20177;-71
2021/03/15 11:51:23;;;;;;;0.37;0.20;;;;;;;6.10;83.40;99615.69;5036437;28;20701;-72
2021/03/15 11:53:49;;;;;;;14.43;1.50;;;;;;;6.14;82.01;99628.31;5053203;28;20653;-71
2021/03/15 11:56:15;;;;;;;0.30;0.30;;;;;;;6.01;82.95;99652.72;5052748;28;20171;-70